Time,TemperatureF,DewpointF,PressureIn,WindDirection,WindDirectionDegrees,WindSpeedMPH,WindSpeedGustMPH,Humidity,HourlyPrecipIn,Conditions,Clouds,dailyrainin,SoftwareType,DateUTC
2013-06-02 00:02:00,38.0,-99.9,30.06,WNW,282,7.0,8.0,-999,-99.99,,,-99.99,,2013-06-02 08:02:00,
2013-06-02 00:12:00,38.0,-99.9,30.06,WNW,284,7.0,8.0,-999,-99.99,,,-99.99,,2013-06-02 08:12:00,
2013-06-02 00:22:00,37.0,-99.9,30.06,WNW,288,7.0,8.0,-999,-99.99,,,-99.99,,2013-06-02 08:22:00,
2013-06-02 00:32:00,36.0,-99.9,30.06,WNW,290,8.0,8.0,-999,-99.99,,,-99.99,,2013-06-02 08:32:00,
2013-06-02 00:42:00,36.0,-99.9,30.06,WNW,293,7.0,8.0,-999,-99.99,,,-99.99,,2013-06-02 08:42:00,
2013-06-02 00:52:00,36.0,-99.9,30.06,WNW,289,8.0,9.0,-999,-99.99,,,-99.99,,2013-06-02 08:52:00,
2013-06-02 01:01:00,37.0,-99.9,30.06,WNW,286,8.0,10.0,-999,-99.99,,,-99.99,,2013-06-02 09:01:00,
2013-06-02 01:11:00,37.0,-99.9,30.06,WNW,286,8.0,9.0,-999,-99.99,,,-99.99,,2013-06-02 09:11:00,
2013-06-02 01:22:00,37.0,-99.9,30.05,WNW,285,10.0,10.0,-999,-99.99,,,-99.99,,2013-06-02 09:22:00,
2013-06-02 01:33:00,37.0,-99.9,30.05,West,280,8.0,10.0,-999,-99.99,,,-99.99,,2013-06-02 09:33:00,
2013-06-02 01:43:00,36.0,-99.9,30.05,West,281,7.0,8.0,-999,-99.99,,,-99.99,,2013-06-02 09:43:00,
2013-06-02 01:53:00,36.0,-99.9,30.05,West,280,7.0,8.0,-999,-99.99,,,-99.99,,2013-06-02 09:53:00,
2013-06-02 02:03:00,35.0,-99.9,30.05,WNW,297,6.0,7.0,-999,-99.99,,,-99.99,,2013-06-02 10:03:00,
2013-06-02 02:12:00,35.0,-99.9,30.04,WNW,291,5.0,8.0,-999,-99.99,,,-99.99,,2013-06-02 10:12:00,
2013-06-02 02:23:00,38.0,-99.9,30.04,NNW,333,4.0,6.0,-999,-99.99,,,-99.99,,2013-06-02 10:23:00,
2013-06-02 02:33:00,42.0,-99.9,30.04,NE,48,3.0,4.0,-999,-99.99,,,-99.99,,2013-06-02 10:33:00,
2013-06-02 02:42:00,43.0,-99.9,30.04,NNW,342,4.0,5.0,-999,-99.99,,,-99.99,,2013-06-02 10:42:00,
2013-06-02 02:52:00,46.0,-99.9,30.04,North,1,4.0,5.0,-999,-99.99,,,-99.99,,2013-06-02 10:52:00,
2013-06-02 03:02:00,46.0,-99.9,30.04,NNW,344,5.0,6.0,-999,-99.99,,,-99.99,,2013-06-02 11:02:00,
2013-06-02 03:12:00,43.0,-99.9,30.04,WNW,300,5.0,6.0,-999,-99.99,,,-99.99,,2013-06-02 11:12:00,
2013-06-02 03:22:00,41.0,-99.9,30.04,WNW,300,7.0,7.0,-999,-99.99,,,-99.99,,2013-06-02 11:22:00,
2013-06-02 03:32:00,39.0,-99.9,30.03,NW,306,6.0,6.0,-999,-99.99,,,-99.99,,2013-06-02 11:32:00,
2013-06-02 03:42:00,40.0,-99.9,30.03,NW,315,5.0,6.0,-999,-99.99,,,-99.99,,2013-06-02 11:42:00,
2013-06-02 03:52:00,41.0,-99.9,30.03,NNW,327,7.0,7.0,-999,-99.99,,,-99.99,,2013-06-02 11:52:00,
2013-06-02 04:02:00,42.0,-99.9,30.03,NW,313,4.0,5.0,-999,-99.99,,,-99.99,,2013-06-02 12:02:00,
2013-06-02 04:11:00,42.0,-99.9,30.03,WNW,302,3.0,4.0,-999,-99.99,,,-99.99,,2013-06-02 12:11:00,
2013-06-02 04:22:00,41.0,-99.9,30.03,NW,324,6.0,7.0,-999,-99.99,,,-99.99,,2013-06-02 12:22:00,
2013-06-02 04:32:00,43.0,-99.9,30.02,NW,312,4.0,5.0,-999,-99.99,,,-99.99,,2013-06-02 12:32:00,
2013-06-02 04:42:00,42.0,-99.9,30.02,NNW,331,5.0,6.0,-999,-99.99,,,-99.99,,2013-06-02 12:42:00,
2013-06-02 04:53:00,42.0,-99.9,30.02,NE,52,2.0,3.0,-999,-99.99,,,-99.99,,2013-06-02 12:53:00,
2013-06-02 05:01:00,40.0,-99.9,30.02,NE,47,1.0,2.0,-999,-99.99,,,-99.99,,2013-06-02 13:01:00,
2013-06-02 05:12:00,40.0,-99.9,30.02,North,354,3.0,3.0,-999,-99.99,,,-99.99,,2013-06-02 13:12:00,
2013-06-02 05:22:00,40.0,-99.9,30.02,NNW,335,4.0,4.0,-999,-99.99,,,-99.99,,2013-06-02 13:22:00,
2013-06-02 05:32:00,40.0,-99.9,30.01,NW,326,4.0,4.0,-999,-99.99,,,-99.99,,2013-06-02 13:32:00,
2013-06-02 05:42:00,41.0,-99.9,30.01,NW,325,4.0,4.0,-999,-99.99,,,-99.99,,2013-06-02 13:42:00,
2013-06-02 05:52:00,41.0,-99.9,30.01,NNW,338,4.0,4.0,-999,-99.99,,,-99.99,,2013-06-02 13:52:00,
2013-06-02 06:02:00,40.0,-99.9,30.01,NNW,337,3.0,3.0,-999,-99.99,,,-99.99,,2013-06-02 14:02:00,
2013-06-02 06:11:00,40.0,-99.9,30.01,NNW,337,3.0,3.0,-999,-99.99,,,-99.99,,2013-06-02 14:11:00,
2013-06-02 06:22:00,42.0,-99.9,30.01,NNW,338,1.0,1.0,-999,-99.99,,,-99.99,,2013-06-02 14:22:00,
2013-06-02 06:32:00,41.0,-99.9,30.00,NE,54,2.0,2.0,-999,-99.99,,,-99.99,,2013-06-02 14:32:00,
2013-06-02 06:42:00,41.0,-99.9,30.00,ENE,66,2.0,2.0,-999,-99.99,,,-99.99,,2013-06-02 14:42:00,
2013-06-02 06:52:00,41.0,-99.9,30.00,NE,52,2.0,3.0,-999,-99.99,,,-99.99,,2013-06-02 14:52:00,
2013-06-02 07:01:00,42.0,-99.9,30.00,NNW,335,3.0,3.0,-999,-99.99,,,-99.99,,2013-06-02 15:01:00,
2013-06-02 07:11:00,43.0,-99.9,30.00,NE,35,2.0,3.0,-999,-99.99,,,-99.99,,2013-06-02 15:11:00,
2013-06-02 07:22:00,45.0,-99.9,30.00,NE,38,0.0,1.0,-999,-99.99,,,-99.99,,2013-06-02 15:22:00,
2013-06-02 07:33:00,40.0,-99.9,29.99,NNW,332,3.0,4.0,-999,-99.99,,,-99.99,,2013-06-02 15:33:00,
2013-06-02 07:43:00,41.0,-99.9,29.99,WNW,292,2.0,3.0,-999,-99.99,,,-99.99,,2013-06-02 15:43:00,
2013-06-02 07:53:00,42.0,-99.9,29.99,NW,319,2.0,2.0,-999,-99.99,,,-99.99,,2013-06-02 15:53:00,
2013-06-02 08:03:00,42.0,-99.9,29.98,NW,318,3.0,3.0,-999,-99.99,,,-99.99,,2013-06-02 16:03:00,
2013-06-02 08:13:00,41.0,-99.9,29.98,NNW,335,4.0,4.0,-999,-99.99,,,-99.99,,2013-06-02 16:13:00,
2013-06-02 08:23:00,46.0,-99.9,29.98,SSE,156,1.0,2.0,-999,-99.99,,,-99.99,,2013-06-02 16:23:00,
2013-06-02 08:33:00,44.0,-99.9,29.98,West,269,3.0,3.0,-999,-99.99,,,-99.99,,2013-06-02 16:33:00,
2013-06-02 08:42:00,39.0,-99.9,29.98,WNW,283,5.0,6.0,-999,-99.99,,,-99.99,,2013-06-02 16:42:00,
2013-06-02 08:53:00,40.0,-99.9,29.98,WNW,287,4.0,6.0,-999,-99.99,,,-99.99,,2013-06-02 16:53:00,
2013-06-02 09:02:00,40.0,-99.9,29.98,WNW,289,4.0,4.0,-999,-99.99,,,-99.99,,2013-06-02 17:02:00,
2013-06-02 09:12:00,42.0,-99.9,29.98,South,177,1.0,4.0,-999,-99.99,,,-99.99,,2013-06-02 17:12:00,
2013-06-02 09:23:00,40.0,-99.9,29.98,SSE,155,4.0,4.0,-999,-99.99,,,-99.99,,2013-06-02 17:23:00,
2013-06-02 09:33:00,41.0,-99.9,29.98,SE,139,1.0,4.0,-999,-99.99,,,-99.99,,2013-06-02 17:33:00,
2013-06-02 09:42:00,43.0,-99.9,29.98,SE,141,2.0,2.0,-999,-99.99,,,-99.99,,2013-06-02 17:42:00,
2013-06-02 09:52:00,43.0,-99.9,29.98,SSW,205,2.0,3.0,-999,-99.99,,,-99.99,,2013-06-02 17:52:00,
2013-06-02 10:02:00,45.0,-99.9,29.97,WSW,255,0.0,2.0,-999,-99.99,,,-99.99,,2013-06-02 18:02:00,
2013-06-02 10:11:00,44.0,-99.9,29.97,SE,126,1.0,2.0,-999,-99.99,,,-99.99,,2013-06-02 18:11:00,
2013-06-02 10:22:00,42.0,-99.9,29.97,SE,129,2.0,2.0,-999,-99.99,,,-99.99,,2013-06-02 18:22:00,
2013-06-02 10:32:00,41.0,-99.9,29.97,SSE,163,2.0,3.0,-999,-99.99,,,-99.99,,2013-06-02 18:32:00,
2013-06-02 10:42:00,42.0,-99.9,29.97,South,175,1.0,4.0,-999,-99.99,,,-99.99,,2013-06-02 18:42:00,
2013-06-02 10:52:00,42.0,-99.9,29.97,SW,223,2.0,4.0,-999,-99.99,,,-99.99,,2013-06-02 18:52:00,
2013-06-02 11:02:00,42.0,-99.9,29.97,West,267,2.0,3.0,-999,-99.99,,,-99.99,,2013-06-02 19:02:00,
2013-06-02 11:11:00,42.0,-99.9,29.97,West,260,3.0,3.0,-999,-99.99,,,-99.99,,2013-06-02 19:11:00,
2013-06-02 11:22:00,43.0,-99.9,29.97,SW,222,3.0,3.0,-999,-99.99,,,-99.99,,2013-06-02 19:22:00,
2013-06-02 11:32:00,40.0,-99.9,29.97,WSW,243,4.0,4.0,-999,-99.99,,,-99.99,,2013-06-02 19:32:00,
2013-06-02 11:42:00,40.0,-99.9,29.97,WSW,250,4.0,4.0,-999,-99.99,,,-99.99,,2013-06-02 19:42:00,
2013-06-02 11:52:00,40.0,-99.9,29.96,WSW,245,4.0,5.0,-999,-99.99,,,-99.99,,2013-06-02 19:52:00,
2013-06-02 12:02:00,41.0,-99.9,29.96,WSW,257,4.0,5.0,-999,-99.99,,,-99.99,,2013-06-02 20:02:00,
2013-06-02 12:11:00,41.0,-99.9,29.96,WSW,252,6.0,6.0,-999,-99.99,,,-99.99,,2013-06-02 20:11:00,
2013-06-02 12:22:00,41.0,-99.9,29.96,West,268,6.0,6.0,-999,-99.99,,,-99.99,,2013-06-02 20:22:00,
2013-06-02 12:32:00,41.0,-99.9,29.96,West,272,5.0,6.0,-999,-99.99,,,-99.99,,2013-06-02 20:32:00,
2013-06-02 12:42:00,42.0,-99.9,29.96,West,269,4.0,5.0,-999,-99.99,,,-99.99,,2013-06-02 20:42:00,
2013-06-02 12:52:00,42.0,-99.9,29.96,West,267,6.0,6.0,-999,-99.99,,,-99.99,,2013-06-02 20:52:00,
2013-06-02 13:02:00,42.0,-99.9,29.96,West,265,6.0,6.0,-999,-99.99,,,-99.99,,2013-06-02 21:02:00,
2013-06-02 13:12:00,41.0,-99.9,29.96,WSW,258,6.0,6.0,-999,-99.99,,,-99.99,,2013-06-02 21:12:00,
2013-06-02 13:22:00,41.0,-99.9,29.96,West,265,6.0,6.0,-999,-99.99,,,-99.99,,2013-06-02 21:22:00,
2013-06-02 13:33:00,39.0,-99.9,29.95,West,277,7.0,8.0,-999,-99.99,,,-99.99,,2013-06-02 21:33:00,
2013-06-02 13:43:00,38.0,-99.9,29.95,WNW,284,7.0,8.0,-999,-99.99,,,-99.99,,2013-06-02 21:43:00,
2013-06-02 13:53:00,39.0,-99.9,29.95,WNW,283,7.0,8.0,-999,-99.99,,,-99.99,,2013-06-02 21:53:00,
2013-06-02 14:03:00,38.0,-99.9,29.95,WNW,288,6.0,7.0,-999,-99.99,,,-99.99,,2013-06-02 22:03:00,
2013-06-02 14:12:00,38.0,-99.9,29.94,WNW,290,7.0,8.0,-999,-99.99,,,-99.99,,2013-06-02 22:12:00,
2013-06-02 14:23:00,38.0,-99.9,29.94,WNW,286,7.0,8.0,-999,-99.99,,,-99.99,,2013-06-02 22:23:00,
2013-06-02 14:33:00,38.0,-99.9,29.94,West,280,7.0,8.0,-999,-99.99,,,-99.99,,2013-06-02 22:33:00,
2013-06-02 14:42:00,38.0,-99.9,29.94,WNW,282,7.0,7.0,-999,-99.99,,,-99.99,,2013-06-02 22:42:00,
2013-06-02 14:53:00,39.0,-99.9,29.94,West,268,6.0,7.0,-999,-99.99,,,-99.99,,2013-06-02 22:53:00,
2013-06-02 15:02:00,39.0,-99.9,29.94,West,267,6.0,7.0,-999,-99.99,,,-99.99,,2013-06-02 23:02:00,
2013-06-02 15:12:00,39.0,-99.9,29.94,West,278,6.0,7.0,-999,-99.99,,,-99.99,,2013-06-02 23:12:00,
2013-06-02 15:22:00,38.0,-99.9,29.94,WNW,282,6.0,7.0,-999,-99.99,,,-99.99,,2013-06-02 23:22:00,
2013-06-02 15:32:00,38.0,-99.9,29.93,WNW,287,7.0,7.0,-999,-99.99,,,-99.99,,2013-06-02 23:32:00,
2013-06-02 15:43:00,39.0,-99.9,29.93,WNW,288,7.0,8.0,-999,-99.99,,,-99.99,,2013-06-02 23:43:00,
2013-06-02 15:53:00,39.0,-99.9,29.93,West,276,7.0,8.0,-999,-99.99,,,-99.99,,2013-06-02 23:53:00,
2013-06-02 16:01:00,40.0,-99.9,29.93,WSW,258,7.0,7.0,-999,-99.99,,,-99.99,,2013-06-03 00:01:00,
2013-06-02 16:12:00,40.0,-99.9,29.93,West,277,6.0,7.0,-999,-99.99,,,-99.99,,2013-06-03 00:12:00,
2013-06-02 16:22:00,40.0,-99.9,29.93,West,268,6.0,7.0,-999,-99.99,,,-99.99,,2013-06-03 00:22:00,
2013-06-02 16:32:00,42.0,-99.9,29.93,West,259,5.0,6.0,-999,-99.99,,,-99.99,,2013-06-03 00:32:00,
2013-06-02 16:42:00,43.0,-99.9,29.93,West,260,4.0,5.0,-999,-99.99,,,-99.99,,2013-06-03 00:42:00,
2013-06-02 16:52:00,45.0,-99.9,29.92,SW,232,3.0,4.0,-999,-99.99,,,-99.99,,2013-06-03 00:52:00,
2013-06-02 17:01:00,46.0,-99.9,29.92,SW,223,3.0,4.0,-999,-99.99,,,-99.99,,2013-06-03 01:01:00,
2013-06-02 17:11:00,44.0,-99.9,29.92,WSW,247,4.0,4.0,-999,-99.99,,,-99.99,,2013-06-03 01:11:00,
2013-06-02 17:21:00,45.0,-99.9,29.92,SW,236,4.0,4.0,-999,-99.99,,,-99.99,,2013-06-03 01:21:00,
2013-06-02 17:32:00,44.0,-99.9,29.91,West,273,5.0,5.0,-999,-99.99,,,-99.99,,2013-06-03 01:32:00,
2013-06-02 17:42:00,43.0,-99.9,29.91,West,274,5.0,6.0,-999,-99.99,,,-99.99,,2013-06-03 01:42:00,
2013-06-02 17:52:00,44.0,-99.9,29.91,West,262,5.0,6.0,-999,-99.99,,,-99.99,,2013-06-03 01:52:00,
2013-06-02 18:02:00,43.0,-99.9,29.91,WSW,241,5.0,6.0,-999,-99.99,,,-99.99,,2013-06-03 02:02:00,
2013-06-02 18:12:00,40.0,-99.9,29.92,SSE,164,7.0,8.0,-999,-99.99,,,-99.99,,2013-06-03 02:12:00,
2013-06-02 18:22:00,44.0,-99.9,29.91,SSW,205,7.0,8.0,-999,-99.99,,,-99.99,,2013-06-03 02:22:00,
2013-06-02 18:32:00,44.0,-99.9,29.91,South,177,4.0,6.0,-999,-99.99,,,-99.99,,2013-06-03 02:32:00,
2013-06-02 18:42:00,42.0,-99.9,29.92,SSE,150,5.0,9.0,-999,-99.99,,,-99.99,,2013-06-03 02:42:00,
2013-06-02 18:52:00,41.0,-99.9,29.92,ESE,121,5.0,7.0,-999,-99.99,,,-99.99,,2013-06-03 02:52:00,
2013-06-02 19:02:00,41.0,-99.9,29.92,SSE,152,9.0,11.0,-999,-99.99,,,-99.99,,2013-06-03 03:02:00,
2013-06-02 19:12:00,41.0,-99.9,29.92,SE,144,6.0,9.0,-999,-99.99,,,-99.99,,2013-06-03 03:12:00,
2013-06-02 19:22:00,41.0,-99.9,29.92,East,101,4.0,5.0,-999,-99.99,,,-99.99,,2013-06-03 03:22:00,
2013-06-02 19:33:00,42.0,-99.9,29.92,SE,144,4.0,5.0,-999,-99.99,,,-99.99,,2013-06-03 03:33:00,
2013-06-02 19:43:00,41.0,-99.9,29.92,SE,139,5.0,8.0,-999,-99.99,,,-99.99,,2013-06-03 03:43:00,
2013-06-02 19:53:00,41.0,-99.9,29.92,SE,141,4.0,6.0,-999,-99.99,,,-99.99,,2013-06-03 03:53:00,
2013-06-02 20:03:00,42.0,-99.9,29.92,SSE,150,2.0,4.0,-999,-99.99,,,-99.99,,2013-06-03 04:03:00,
2013-06-02 20:13:00,41.0,-99.9,29.92,ESE,110,3.0,4.0,-999,-99.99,,,-99.99,,2013-06-03 04:13:00,
2013-06-02 20:23:00,40.0,-99.9,29.92,East,101,3.0,4.0,-999,-99.99,,,-99.99,,2013-06-03 04:23:00,
2013-06-02 20:33:00,41.0,-99.9,29.93,ESE,104,4.0,6.0,-999,-99.99,,,-99.99,,2013-06-03 04:33:00,
2013-06-02 20:42:00,41.0,-99.9,29.93,ESE,108,6.0,11.0,-999,-99.99,,,-99.99,,2013-06-03 04:42:00,
2013-06-02 20:53:00,40.0,-99.9,29.93,ESE,108,7.0,9.0,-999,-99.99,,,-99.99,,2013-06-03 04:53:00,
2013-06-02 21:02:00,40.0,-99.9,29.93,ESE,103,8.0,10.0,-999,-99.99,,,-99.99,,2013-06-03 05:02:00,
2013-06-02 21:13:00,40.0,-99.9,29.93,ESE,123,7.0,10.0,-999,-99.99,,,-99.99,,2013-06-03 05:13:00,
2013-06-02 21:22:00,40.0,-99.9,29.93,ESE,116,7.0,9.0,-999,-99.99,,,-99.99,,2013-06-03 05:22:00,
2013-06-02 21:32:00,39.0,-99.9,29.94,SE,126,4.0,8.0,-999,-99.99,,,-99.99,,2013-06-03 05:32:00,
2013-06-02 21:43:00,39.0,-99.9,29.94,ESE,109,4.0,6.0,-999,-99.99,,,-99.99,,2013-06-03 05:43:00,
2013-06-02 21:52:00,40.0,-99.9,29.94,East,82,2.0,4.0,-999,-99.99,,,-99.99,,2013-06-03 05:52:00,
2013-06-02 22:02:00,40.0,-99.9,29.94,East,84,3.0,4.0,-999,-99.99,,,-99.99,,2013-06-03 06:02:00,
2013-06-02 22:12:00,42.0,-99.9,29.94,East,100,4.0,4.0,-999,-99.99,,,-99.99,,2013-06-03 06:12:00,
2013-06-02 22:22:00,41.0,-99.9,29.94,East,92,2.0,4.0,-999,-99.99,,,-99.99,,2013-06-03 06:22:00,
2013-06-02 22:32:00,41.0,-99.9,29.93,ESE,102,2.0,4.0,-999,-99.99,,,-99.99,,2013-06-03 06:32:00,
2013-06-02 22:42:00,42.0,-99.9,29.93,ENE,65,2.0,2.0,-999,-99.99,,,-99.99,,2013-06-03 06:42:00,
2013-06-02 22:53:00,41.0,-99.9,29.93,ESE,117,4.0,6.0,-999,-99.99,,,-99.99,,2013-06-03 06:53:00,
2013-06-02 23:02:00,40.0,-99.9,29.94,SE,135,7.0,9.0,-999,-99.99,,,-99.99,,2013-06-03 07:02:00,
2013-06-02 23:12:00,40.0,-99.9,29.94,SE,134,6.0,9.0,-999,-99.99,,,-99.99,,2013-06-03 07:12:00,
2013-06-02 23:22:00,38.0,-99.9,29.94,SE,143,7.0,10.0,-999,-99.99,,,-99.99,,2013-06-03 07:22:00,
2013-06-02 23:32:00,39.0,-99.9,29.94,SE,133,7.0,8.0,-999,-99.99,,,-99.99,,2013-06-03 07:32:00,
2013-06-02 23:42:00,39.0,-99.9,29.93,SE,130,5.0,8.0,-999,-99.99,,,-99.99,,2013-06-03 07:42:00,
2013-06-02 23:52:00,37.0,-99.9,29.93,ESE,122,6.0,8.0,-999,-99.99,,,-99.99,,2013-06-03 07:52:00,